createdAt,value
2018-08-22T00:02:23.433Z,97.96
2018-08-22T00:04:52.505Z,98.27
2018-08-22T00:07:21.473Z,98.38
2018-08-22T00:09:50.441Z,99.02
2018-08-22T00:12:19.396Z,98.79
2018-08-22T00:14:48.348Z,99.04
2018-08-22T00:17:17.302Z,99.72
2018-08-22T00:19:46.255Z,100.00
2018-08-22T00:22:15.261Z,100.00
2018-08-22T00:24:44.557Z,100.00
2018-08-22T00:27:13.512Z,100.00
2018-08-22T00:29:42.531Z,100.00
2018-08-22T00:32:11.489Z,100.00
2018-08-22T00:34:40.447Z,100.00
2018-08-22T00:37:09.391Z,100.00
2018-08-22T00:39:38.416Z,100.00
2018-08-22T00:42:07.356Z,100.00
2018-08-22T00:44:36.303Z,98.98
2018-08-22T00:47:05.260Z,97.71
2018-08-22T00:49:34.209Z,97.72
2018-08-22T00:52:03.182Z,98.22
2018-08-22T00:54:32.129Z,97.30
2018-08-22T00:57:01.181Z,97.47
2018-08-22T00:59:30.193Z,97.62
2018-08-22T01:01:59.265Z,96.74
2018-08-22T01:04:28.358Z,96.99
2018-08-22T01:06:57.310Z,96.24
2018-08-22T01:09:26.348Z,96.35
2018-08-22T01:11:55.288Z,95.27
2018-08-22T01:14:24.366Z,95.04
2018-08-22T01:16:53.384Z,94.80
2018-08-22T01:19:22.430Z,94.58
2018-08-22T01:21:51.527Z,95.31
2018-08-22T01:24:20.506Z,95.69
2018-08-22T01:26:49.556Z,97.28
2018-08-22T01:29:18.513Z,97.82
2018-08-22T01:31:47.650Z,98.45
2018-08-22T01:34:16.661Z,97.70
2018-08-22T01:36:45.734Z,97.78
2018-08-22T01:39:14.828Z,96.98
2018-08-22T01:41:43.782Z,97.86
2018-08-22T01:44:13.201Z,99.35
2018-08-22T01:46:42.197Z,100.00
2018-08-22T01:49:11.272Z,100.00
2018-08-22T01:51:40.247Z,100.00
2018-08-22T01:54:09.258Z,100.00
2018-08-22T01:56:38.268Z,100.00
2018-08-22T01:59:07.275Z,100.00
2018-08-22T02:01:36.289Z,100.00
2018-08-22T02:04:05.339Z,100.00
2018-08-22T02:06:34.400Z,100.00
2018-08-22T02:09:03.482Z,100.00
2018-08-22T02:11:32.507Z,100.00
2018-08-22T02:14:01.472Z,100.00
2018-08-22T02:16:30.431Z,100.00
2018-08-22T02:18:59.514Z,100.00
2018-08-22T02:21:28.589Z,100.00
2018-08-22T02:23:57.645Z,100.00
2018-08-22T02:26:26.630Z,100.00
2018-08-22T02:28:55.574Z,100.00
2018-08-22T02:31:24.604Z,100.00
2018-08-22T02:33:53.891Z,100.00
2018-08-22T02:36:22.973Z,100.00
2018-08-22T02:38:51.936Z,100.00
2018-08-22T02:41:20.948Z,100.00
2018-08-22T02:43:49.990Z,100.00
2018-08-22T02:46:18.940Z,100.00
2018-08-22T02:48:52.996Z,100.00
2018-08-22T02:51:22.024Z,100.00
2018-08-22T02:53:51.121Z,100.00
2018-08-22T02:56:20.148Z,100.00
2018-08-22T02:58:49.187Z,100.00
2018-08-22T03:01:18.276Z,100.00
2018-08-22T03:03:47.325Z,100.00
2018-08-22T03:06:16.300Z,100.00
2018-08-22T03:08:45.326Z,100.00
2018-08-22T03:11:14.424Z,100.00
2018-08-22T03:13:43.505Z,100.00
2018-08-22T03:16:12.561Z,100.00
2018-08-22T03:18:41.532Z,100.00
2018-08-22T03:21:10.488Z,100.00
2018-08-22T03:23:39.471Z,100.00
2018-08-22T03:26:08.541Z,100.00
2018-08-22T03:28:37.669Z,100.00
2018-08-22T03:31:06.750Z,100.00
2018-08-22T03:33:35.765Z,100.00
2018-08-22T03:36:04.807Z,100.00
2018-08-22T03:38:33.891Z,100.00
2018-08-22T03:41:02.876Z,100.00
2018-08-22T03:43:31.883Z,100.00
2018-08-22T03:46:00.964Z,100.00
2018-08-22T03:48:29.960Z,100.00
2018-08-22T03:50:58.944Z,100.00
2018-08-22T03:53:28.253Z,100.00
2018-08-22T03:55:57.296Z,100.00
2018-08-22T03:58:26.271Z,100.00
2018-08-22T04:00:55.245Z,100.00
2018-08-22T04:03:24.345Z,100.00
2018-08-22T04:05:53.313Z,100.00
2018-08-22T04:08:22.410Z,100.00
2018-08-22T04:10:51.476Z,100.00
2018-08-22T04:13:20.494Z,100.00
2018-08-22T04:15:49.577Z,100.00
2018-08-22T04:18:18.589Z,100.00
2018-08-22T04:20:47.688Z,100.00
2018-08-22T04:23:16.651Z,100.00
2018-08-22T04:25:45.639Z,100.00
2018-08-22T04:28:14.674Z,100.00
2018-08-22T04:30:43.673Z,95.49
2018-08-22T04:33:12.711Z,89.76
2018-08-22T04:35:41.718Z,83.55
2018-08-22T04:38:10.781Z,79.51
2018-08-22T04:40:39.744Z,74.08
2018-08-22T04:43:08.713Z,70.47
2018-08-22T04:45:37.749Z,66.67
2018-08-22T04:48:06.821Z,62.58
2018-08-22T04:50:35.850Z,61.08
2018-08-22T04:53:04.825Z,59.01
2018-08-22T04:55:33.953Z,56.68
2018-08-22T04:58:02.984Z,55.95
2018-08-22T05:00:31.992Z,53.75
2018-08-22T05:03:00.996Z,52.85
2018-08-22T05:05:30.005Z,50.68
2018-08-22T05:07:58.988Z,49.44
2018-08-22T05:10:27.951Z,48.90
2018-08-22T05:12:57.103Z,48.14
2018-08-22T05:15:26.061Z,48.34
2018-08-22T05:17:55.047Z,45.58
2018-08-22T05:20:24.079Z,45.78
2018-08-22T05:22:53.105Z,45.46
2018-08-22T05:25:22.157Z,46.48
2018-08-22T05:27:51.168Z,45.26
2018-08-22T05:30:20.322Z,45.43
2018-08-22T05:32:49.360Z,45.80
2018-08-22T05:35:18.341Z,44.67
2018-08-22T05:37:47.348Z,44.97
2018-08-22T05:40:16.364Z,45.82
2018-08-22T05:42:45.350Z,44.86
2018-08-22T05:45:14.362Z,45.21
2018-08-22T05:47:43.473Z,45.67
2018-08-22T05:50:12.494Z,44.19
2018-08-22T05:52:41.576Z,43.58
2018-08-22T05:55:10.614Z,43.59
2018-08-22T05:57:39.774Z,42.62
2018-08-22T06:00:08.790Z,40.80
2018-08-22T06:02:37.812Z,41.44
2018-08-22T06:05:06.893Z,41.15
2018-08-22T06:07:35.853Z,40.88
2018-08-22T06:10:05.032Z,41.74
2018-08-22T06:12:34.054Z,42.62
2018-08-22T06:15:03.129Z,43.98
2018-08-22T06:17:32.107Z,49.76
2018-08-22T06:20:01.211Z,52.18
2018-08-22T06:22:30.263Z,54.33
2018-08-22T06:24:59.212Z,54.94
2018-08-22T06:27:28.164Z,55.12
2018-08-22T06:29:57.201Z,54.82
2018-08-22T06:32:26.480Z,53.97
2018-08-22T06:34:55.459Z,50.53
2018-08-22T06:37:24.513Z,47.72
2018-08-22T06:39:53.553Z,46.83
2018-08-22T06:42:22.557Z,48.11
2018-08-22T06:44:51.796Z,52.44
2018-08-22T06:47:20.829Z,53.33
2018-08-22T06:49:49.795Z,55.96
2018-08-22T06:52:18.934Z,55.34
2018-08-22T06:54:47.955Z,55.77
2018-08-22T06:57:17.082Z,59.42
2018-08-22T06:59:46.028Z,57.06
2018-08-22T07:02:15.109Z,55.82
2018-08-22T07:04:44.157Z,54.45
2018-08-22T07:07:13.168Z,55.40
2018-08-22T07:09:42.184Z,55.33
2018-08-22T07:12:11.259Z,52.73
2018-08-22T07:14:40.345Z,52.22
2018-08-22T07:17:09.320Z,51.21
2018-08-22T07:19:38.328Z,49.94
2018-08-22T07:22:07.340Z,49.43
2018-08-22T07:24:36.292Z,52.20
2018-08-22T07:27:05.365Z,53.02
2018-08-22T07:29:34.329Z,52.53
2018-08-22T07:32:03.350Z,50.84
2018-08-22T07:34:32.328Z,49.05
2018-08-22T07:37:01.285Z,51.41
2018-08-22T07:39:30.365Z,49.28
2018-08-22T07:41:59.557Z,50.97
2018-08-22T07:44:28.584Z,49.29
2018-08-22T07:46:57.577Z,48.98
2018-08-22T07:49:26.539Z,49.49
2018-08-22T07:51:55.588Z,49.65
2018-08-22T07:54:29.953Z,51.25
2018-08-22T07:56:59.073Z,49.96
2018-08-22T07:59:28.089Z,47.90
2018-08-22T08:01:57.205Z,49.95
2018-08-22T08:04:26.119Z,47.99
2018-08-22T08:06:55.197Z,48.89
2018-08-22T08:09:24.130Z,48.48
2018-08-22T08:11:53.205Z,49.80
2018-08-22T08:14:22.188Z,48.57
2018-08-22T08:16:51.141Z,50.23
2018-08-22T08:19:20.159Z,51.47
2018-08-22T08:21:49.187Z,47.82
2018-08-22T08:24:18.176Z,48.60
2018-08-22T08:26:47.173Z,46.48
2018-08-22T08:29:16.204Z,47.19
2018-08-22T08:31:45.163Z,47.19
2018-08-22T08:34:14.288Z,45.87
2018-08-22T08:36:43.359Z,52.34
2018-08-22T08:39:12.808Z,47.93
2018-08-22T08:41:41.917Z,45.77
2018-08-22T08:44:10.824Z,50.88
2018-08-22T08:46:39.905Z,49.38
2018-08-22T08:49:08.934Z,46.67
2018-08-22T08:51:47.624Z,46.22
2018-08-22T08:54:16.585Z,45.95
2018-08-22T08:56:45.587Z,44.96
2018-08-22T08:59:14.603Z,47.73
2018-08-22T09:01:43.565Z,46.32
2018-08-22T09:04:12.533Z,44.82
2018-08-22T09:06:41.547Z,45.09
2018-08-22T09:09:11.084Z,41.99
2018-08-22T09:11:49.022Z,42.15
2018-08-22T09:14:18.065Z,41.43
2018-08-22T09:16:47.026Z,42.18
2018-08-22T09:19:16.030Z,43.44
2018-08-22T09:21:45.073Z,45.98
2018-08-22T09:24:14.098Z,40.14
2018-08-22T09:26:43.451Z,38.15
2018-08-22T09:29:12.743Z,36.56
2018-08-22T09:31:41.769Z,38.74
2018-08-22T09:34:10.797Z,37.86
2018-08-22T09:36:39.756Z,33.63
2018-08-22T09:39:11.999Z,33.80
2018-08-22T09:41:40.984Z,33.24
2018-08-22T09:44:10.060Z,33.87
2018-08-22T09:46:39.915Z,31.55
2018-08-22T09:49:09.371Z,32.04
2018-08-22T09:51:38.393Z,32.74
2018-08-22T09:54:07.352Z,31.47
2018-08-22T09:56:36.538Z,31.57
2018-08-22T09:59:05.562Z,31.88
2018-08-22T10:01:39.658Z,36.70
2018-08-22T10:04:08.660Z,34.47
2018-08-22T10:06:43.962Z,35.72
2018-08-22T10:09:21.720Z,36.09
2018-08-22T10:11:50.751Z,33.54
2018-08-22T10:14:19.760Z,35.49
2018-08-22T10:16:48.786Z,33.93
2018-08-22T10:19:17.813Z,34.58
2018-08-22T10:21:46.845Z,32.40
2018-08-22T10:24:15.944Z,33.52
2018-08-22T10:26:44.969Z,32.93
2018-08-22T10:29:14.002Z,34.70
2018-08-22T10:31:43.070Z,33.69
2018-08-22T10:34:12.055Z,36.90
2018-08-22T10:36:41.093Z,34.02
2018-08-22T10:39:10.614Z,33.68
2018-08-22T10:41:39.621Z,33.98
2018-08-22T10:44:08.580Z,33.02
2018-08-22T10:46:37.533Z,33.46
2018-08-22T10:49:06.713Z,32.12
2018-08-22T10:51:35.731Z,29.34
2018-08-22T10:54:04.825Z,28.00
2018-08-22T10:56:33.812Z,28.64
2018-08-22T10:59:02.878Z,26.94
2018-08-22T11:01:31.976Z,28.18
2018-08-22T11:04:01.046Z,28.39
2018-08-22T11:06:30.070Z,26.13
2018-08-22T11:08:59.098Z,25.13
2018-08-22T11:11:28.057Z,23.81
2018-08-22T11:13:57.205Z,25.23
2018-08-22T11:16:26.162Z,25.19
2018-08-22T11:18:55.168Z,24.84
2018-08-22T11:21:35.017Z,24.51
2018-08-22T11:24:15.033Z,24.13
2018-08-22T11:26:54.918Z,24.15
2018-08-22T11:29:34.772Z,24.56
2018-08-22T11:32:14.712Z,24.16
2018-08-22T11:34:45.016Z,22.18
2018-08-22T11:37:15.203Z,23.02
2018-08-22T11:39:46.629Z,23.28
2018-08-22T11:42:15.670Z,22.11
2018-08-22T11:44:44.689Z,23.00
2018-08-22T11:47:13.651Z,24.43
2018-08-22T11:49:42.654Z,22.14
2018-08-22T11:52:11.631Z,23.26
2018-08-22T11:54:40.572Z,22.74
2018-08-22T11:57:09.661Z,23.10
2018-08-22T11:59:38.653Z,22.54
2018-08-22T12:02:07.683Z,22.56
2018-08-22T12:04:36.656Z,21.76
2018-08-22T12:07:05.714Z,22.82
2018-08-22T12:09:34.739Z,22.65
2018-08-22T12:12:03.731Z,23.23
2018-08-22T12:14:32.706Z,23.87
2018-08-22T12:17:01.664Z,25.75
2018-08-22T12:19:30.668Z,27.65
2018-08-22T12:21:59.753Z,27.19
2018-08-22T12:24:28.704Z,26.25
2018-08-22T12:26:57.695Z,30.73
2018-08-22T12:29:26.763Z,29.99
2018-08-22T12:31:55.761Z,26.00
2018-08-22T12:34:24.857Z,25.87
2018-08-22T12:36:53.807Z,24.82
2018-08-22T12:39:22.866Z,22.01
2018-08-22T12:41:51.828Z,22.12
2018-08-22T12:44:20.816Z,23.83
2018-08-22T12:46:49.882Z,23.31
2018-08-22T12:49:18.835Z,23.21
2018-08-22T12:51:47.793Z,24.27
2018-08-22T12:54:16.773Z,23.74
2018-08-22T12:56:45.858Z,25.65
2018-08-22T12:59:14.879Z,23.88
2018-08-22T13:01:43.953Z,22.67
2018-08-22T13:04:12.963Z,24.38
2018-08-22T13:06:41.924Z,23.82
2018-08-22T13:09:11.736Z,23.57
2018-08-22T13:11:41.024Z,23.18
2018-08-22T13:14:10.105Z,23.80
2018-08-22T13:16:39.111Z,24.97
2018-08-22T13:19:08.155Z,25.96
2018-08-22T13:21:37.088Z,27.16
2018-08-22T13:24:06.190Z,30.56
2018-08-22T13:26:35.293Z,34.17
2018-08-22T13:29:04.231Z,34.59
2018-08-22T13:31:33.236Z,35.88
2018-08-22T13:34:02.180Z,37.19
2018-08-22T13:36:31.232Z,38.41
2018-08-22T13:39:00.220Z,39.66
2018-08-22T13:41:29.196Z,40.64
2018-08-22T13:43:58.363Z,41.59
2018-08-22T13:46:27.384Z,43.32
2018-08-22T13:48:56.417Z,42.71
2018-08-22T13:51:25.474Z,44.13
2018-08-22T13:53:54.525Z,44.72
2018-08-22T13:56:23.659Z,44.97
2018-08-22T13:58:52.685Z,47.05
2018-08-22T14:01:21.782Z,47.28
2018-08-22T14:03:50.806Z,49.27
2018-08-22T14:06:19.857Z,47.14
2018-08-22T14:08:48.893Z,47.46
2018-08-22T14:11:17.891Z,46.67
2018-08-22T14:13:47.020Z,46.47
2018-08-22T14:16:16.026Z,46.44
2018-08-22T14:18:45.029Z,46.63
2018-08-22T14:21:13.999Z,45.94
2018-08-22T14:23:42.969Z,45.67
2018-08-22T14:26:12.167Z,44.99
2018-08-22T14:28:41.111Z,46.48
2018-08-22T14:31:10.331Z,48.25
2018-08-22T14:33:39.670Z,47.83
2018-08-22T14:36:09.018Z,48.35
2018-08-22T14:38:39.968Z,49.51
2018-08-22T14:41:09.250Z,50.33
2018-08-22T14:43:39.169Z,50.29
2018-08-22T14:46:08.541Z,50.62
2018-08-22T14:48:37.795Z,50.37
2018-08-22T14:51:07.154Z,51.48
2018-08-22T14:53:36.432Z,52.13
2018-08-22T14:56:05.822Z,51.63
2018-08-22T14:58:35.031Z,50.65
2018-08-22T15:01:04.300Z,48.77
2018-08-22T15:03:33.702Z,50.19
2018-08-22T15:06:02.850Z,50.23
2018-08-22T15:08:32.073Z,50.40
2018-08-22T15:11:01.283Z,50.79
2018-08-22T15:13:30.541Z,50.39
2018-08-22T15:15:59.793Z,51.35
2018-08-22T15:18:29.067Z,50.62
2018-08-22T15:20:58.304Z,51.21
2018-08-22T15:23:27.625Z,52.26
2018-08-22T15:25:56.997Z,51.62
2018-08-22T15:28:26.275Z,50.79
2018-08-22T15:30:55.527Z,50.84
2018-08-22T15:33:24.706Z,50.07
2018-08-22T15:35:53.927Z,50.72
2018-08-22T15:38:23.166Z,51.02
2018-08-22T15:40:52.420Z,49.62
2018-08-22T15:43:21.722Z,50.10
2018-08-22T15:45:50.934Z,52.09
2018-08-22T15:48:20.204Z,50.53
2018-08-22T15:50:49.483Z,51.58
2018-08-22T15:53:18.831Z,53.38
2018-08-22T15:55:48.011Z,53.76
2018-08-22T15:58:17.289Z,53.82
2018-08-22T16:00:50.473Z,53.28
2018-08-22T16:03:19.889Z,53.04
2018-08-22T16:05:49.996Z,53.22
2018-08-22T16:08:20.706Z,53.39
2018-08-22T16:10:50.063Z,55.63
2018-08-22T16:13:24.359Z,55.58
2018-08-22T16:15:55.969Z,56.42
2018-08-22T16:18:25.269Z,56.55
2018-08-22T16:20:56.730Z,55.90
2018-08-22T16:23:28.120Z,56.35
2018-08-22T16:25:58.642Z,57.32
2018-08-22T16:28:28.608Z,55.76
2018-08-22T16:30:58.964Z,57.14
2018-08-22T16:33:28.271Z,57.49
2018-08-22T16:35:57.535Z,57.69
2018-08-22T16:38:26.864Z,56.32
2018-08-22T16:40:56.122Z,56.35
2018-08-22T16:43:39.416Z,56.37
2018-08-22T16:46:10.537Z,57.29
2018-08-22T16:48:40.564Z,58.84
2018-08-22T16:51:09.832Z,62.50
2018-08-22T16:53:39.031Z,63.34
2018-08-22T16:56:08.263Z,64.60
2018-08-22T16:58:37.399Z,65.62
2018-08-22T17:01:06.783Z,66.58
2018-08-22T17:03:36.018Z,67.35
2018-08-22T17:06:12.235Z,68.37
2018-08-22T17:08:41.551Z,69.87
2018-08-22T17:11:12.516Z,71.25
2018-08-22T17:13:45.413Z,71.87
2018-08-22T17:16:14.768Z,71.98
2018-08-22T17:18:44.020Z,72.65
2018-08-22T17:21:20.416Z,73.31
2018-08-22T17:23:50.099Z,70.82
2018-08-22T17:26:20.576Z,70.36
2018-08-22T17:28:52.553Z,70.05
2018-08-22T17:31:22.850Z,69.65
2018-08-22T17:33:54.944Z,70.18
2018-08-22T17:36:24.331Z,68.21
2018-08-22T17:38:55.243Z,68.03
2018-08-22T17:41:25.981Z,68.73
2018-08-22T17:44:05.470Z,67.63
2018-08-22T17:46:48.276Z,70.87
2018-08-22T17:49:17.659Z,68.08
2018-08-22T17:51:57.073Z,68.67
2018-08-22T17:54:26.848Z,68.19
2018-08-22T17:57:08.276Z,69.85
2018-08-22T17:59:37.612Z,68.25
2018-08-22T18:02:06.912Z,70.38
2018-08-22T18:04:47.471Z,68.50
2018-08-22T18:07:17.446Z,69.93
2018-08-22T18:09:47.847Z,69.38
2018-08-22T18:12:17.724Z,70.70
2018-08-22T18:14:47.058Z,69.63
2018-08-22T18:17:16.683Z,69.96
2018-08-22T18:19:46.286Z,70.42
2018-08-22T18:22:15.599Z,70.88
2018-08-22T18:24:51.757Z,71.70
2018-08-22T18:27:21.148Z,72.97
2018-08-22T18:29:50.563Z,72.71
2018-08-22T18:32:19.848Z,71.47
2018-08-22T18:35:18.196Z,72.68
2018-08-22T18:37:47.550Z,72.28
2018-08-22T18:40:18.352Z,72.41
2018-08-22T18:42:49.725Z,72.23
2018-08-22T18:45:19.473Z,73.90
2018-08-22T18:47:48.870Z,73.91
2018-08-22T18:50:18.514Z,72.59
2018-08-22T18:52:52.163Z,72.94
2018-08-22T18:55:25.188Z,73.10
2018-08-22T18:57:55.135Z,74.21
2018-08-22T19:00:24.809Z,74.18
2018-08-22T19:02:55.725Z,75.30
2018-08-22T19:05:32.662Z,75.85
2018-08-22T19:08:11.807Z,76.12
2018-08-22T19:10:42.402Z,76.37
2018-08-22T19:13:16.678Z,76.22
2018-08-22T19:15:51.911Z,76.00
2018-08-22T19:18:21.380Z,76.45
2018-08-22T19:20:53.420Z,76.09
2018-08-22T19:23:22.901Z,75.31
2018-08-22T19:25:53.092Z,76.23
2018-08-22T19:28:22.447Z,75.54
2018-08-22T19:30:51.926Z,76.21
2018-08-22T19:33:23.198Z,77.25
2018-08-22T19:35:52.531Z,77.64
2018-08-22T19:38:23.210Z,78.24
2018-08-22T19:40:52.638Z,78.92
2018-08-22T19:43:22.068Z,79.76
2018-08-22T19:45:51.388Z,80.74
2018-08-22T19:48:20.714Z,80.55
2018-08-22T19:50:50.080Z,81.26
2018-08-22T19:53:19.411Z,81.75
2018-08-22T19:55:48.706Z,82.18
2018-08-22T19:58:22.074Z,82.47
2018-08-22T20:00:51.373Z,82.84
2018-08-22T20:03:25.030Z,82.98
2018-08-22T20:05:55.550Z,83.90
2018-08-22T20:08:39.971Z,84.22
2018-08-22T20:11:09.326Z,84.83
2018-08-22T20:13:49.487Z,84.80
2018-08-22T20:16:19.998Z,84.23
2018-08-22T20:18:51.197Z,85.08
2018-08-22T20:21:25.423Z,85.22
2018-08-22T20:23:55.502Z,86.62
2018-08-22T20:26:25.718Z,86.28
2018-08-22T20:28:56.226Z,86.50
2018-08-22T20:31:25.502Z,87.01
2018-08-22T20:34:03.583Z,87.30
2018-08-22T20:36:33.028Z,87.72
2018-08-22T20:39:07.148Z,86.23
2018-08-22T20:41:37.063Z,86.08
2018-08-22T20:44:09.576Z,84.84
2018-08-22T20:46:39.027Z,84.87
2018-08-22T20:49:08.291Z,84.91
2018-08-22T20:51:37.567Z,85.23
2018-08-22T20:54:07.761Z,85.10
2018-08-22T20:56:38.800Z,84.33
2018-08-22T20:59:08.072Z,84.29
2018-08-22T21:01:37.374Z,85.06
2018-08-22T21:04:06.633Z,83.91
2018-08-22T21:06:35.966Z,84.85
2018-08-22T21:09:06.272Z,84.83
2018-08-22T21:11:36.172Z,84.52
2018-08-22T21:14:05.486Z,84.22
2018-08-22T21:16:34.844Z,85.56
2018-08-22T21:19:04.147Z,86.15
2018-08-22T21:21:33.428Z,86.66
2018-08-22T21:24:02.761Z,87.34
2018-08-22T21:26:39.397Z,87.17
2018-08-22T21:29:08.788Z,87.91
2018-08-22T21:31:38.067Z,88.58
2018-08-22T21:34:13.471Z,89.15
2018-08-22T21:36:45.266Z,89.66
2018-08-22T21:39:19.540Z,89.67
2018-08-22T21:41:49.075Z,90.79
2018-08-22T21:44:19.495Z,91.39
2018-08-22T21:46:58.180Z,92.96
2018-08-22T21:49:27.481Z,92.69
2018-08-22T21:51:58.803Z,93.42
2018-08-22T21:54:28.188Z,92.97
2018-08-22T21:56:57.228Z,94.47
2018-08-22T21:59:26.194Z,95.09
2018-08-22T22:02:00.289Z,95.67
2018-08-22T22:04:35.436Z,95.98
2018-08-22T22:07:05.543Z,95.71
2018-08-22T22:09:35.121Z,95.95
2018-08-22T22:12:04.685Z,96.26
2018-08-22T22:14:34.748Z,96.21
2018-08-22T22:17:04.615Z,96.29
2018-08-22T22:19:34.692Z,96.34
2018-08-22T22:22:04.201Z,96.49
2018-08-22T22:24:33.284Z,95.20
2018-08-22T22:27:02.224Z,94.35
2018-08-22T22:29:32.672Z,94.42
2018-08-22T22:32:01.623Z,95.37
2018-08-22T22:34:30.652Z,93.61
2018-08-22T22:36:59.584Z,93.37
2018-08-22T22:39:36.519Z,93.85
2018-08-22T22:42:16.733Z,93.29
2018-08-22T22:44:47.480Z,93.07
2018-08-22T22:47:21.636Z,92.75
2018-08-22T22:49:51.473Z,92.93
2018-08-22T22:52:41.916Z,91.02
2018-08-22T22:55:11.488Z,89.89
2018-08-22T22:57:41.697Z,89.79
2018-08-22T23:00:12.508Z,90.34
2018-08-22T23:02:41.827Z,88.45
2018-08-22T23:05:10.856Z,87.14
2018-08-22T23:07:41.948Z,85.32
2018-08-22T23:10:12.245Z,87.05
2018-08-22T23:12:41.817Z,86.47
2018-08-22T23:15:13.669Z,86.14
2018-08-22T23:17:42.932Z,85.53
2018-08-22T23:20:24.696Z,83.57
2018-08-22T23:22:53.755Z,83.67
2018-08-22T23:25:22.751Z,85.03
2018-08-22T23:27:51.691Z,85.68
2018-08-22T23:30:25.501Z,84.33
2018-08-22T23:32:54.451Z,83.80
2018-08-22T23:35:27.068Z,85.88
2018-08-22T23:37:58.206Z,85.21
2018-08-22T23:40:28.337Z,83.71
2018-08-22T23:42:57.399Z,83.49
2018-08-22T23:45:26.425Z,83.42
2018-08-22T23:47:55.441Z,83.12
2018-08-22T23:50:26.701Z,83.65
2018-08-22T23:52:56.423Z,82.85
2018-08-22T23:55:26.329Z,83.08
2018-08-22T23:57:56.574Z,83.87
